sensor_id;sensor_type;location;lat;lon;timestamp;temperature;humidity
10891;DHT22;5498;50.928;11.598;2022-12-18T00:02:51;-6.80;86.60
10891;DHT22;5498;50.928;11.598;2022-12-18T00:05:52;-6.90;86.00
10891;DHT22;5498;50.928;11.598;2022-12-18T00:08:56;-6.90;86.50
10891;DHT22;5498;50.928;11.598;2022-12-18T00:11:59;-6.80;86.80
10891;DHT22;5498;50.928;11.598;2022-12-18T00:15:03;-6.80;86.50
10891;DHT22;5498;50.928;11.598;2022-12-18T00:18:05;-6.80;86.50
10891;DHT22;5498;50.928;11.598;2022-12-18T00:21:09;-6.80;86.20
10891;DHT22;5498;50.928;11.598;2022-12-18T00:24:13;-6.80;86.10
10891;DHT22;5498;50.928;11.598;2022-12-18T00:27:16;-6.90;85.20
10891;DHT22;5498;50.928;11.598;2022-12-18T00:30:18;-7.00;85.40
10891;DHT22;5498;50.928;11.598;2022-12-18T00:33:20;-7.10;85.50
10891;DHT22;5498;50.928;11.598;2022-12-18T00:36:24;-7.20;85.90
10891;DHT22;5498;50.928;11.598;2022-12-18T00:39:26;-7.30;86.50
10891;DHT22;5498;50.928;11.598;2022-12-18T00:42:31;-7.30;86.40
10891;DHT22;5498;50.928;11.598;2022-12-18T00:45:51;-7.30;86.60
10891;DHT22;5498;50.928;11.598;2022-12-18T00:48:54;-7.20;86.70
10891;DHT22;5498;50.928;11.598;2022-12-18T00:51:56;-7.20;86.30
10891;DHT22;5498;50.928;11.598;2022-12-18T00:54:58;-7.30;86.10
10891;DHT22;5498;50.928;11.598;2022-12-18T00:58:01;-7.30;86.20
10891;DHT22;5498;50.928;11.598;2022-12-18T01:01:03;-7.30;86.30
10891;DHT22;5498;50.928;11.598;2022-12-18T01:04:06;-7.40;85.90
10891;DHT22;5498;50.928;11.598;2022-12-18T01:07:08;-7.50;85.80
10891;DHT22;5498;50.928;11.598;2022-12-18T01:10:11;-7.60;86.10
10891;DHT22;5498;50.928;11.598;2022-12-18T01:13:15;-7.60;86.50
10891;DHT22;5498;50.928;11.598;2022-12-18T01:16:17;-7.60;86.50
10891;DHT22;5498;50.928;11.598;2022-12-18T01:19:20;-7.70;86.60
10891;DHT22;5498;50.928;11.598;2022-12-18T01:22:22;-7.70;86.70
10891;DHT22;5498;50.928;11.598;2022-12-18T01:25:24;-7.60;87.00
10891;DHT22;5498;50.928;11.598;2022-12-18T01:28:28;-7.60;86.60
10891;DHT22;5498;50.928;11.598;2022-12-18T01:31:32;-7.50;86.60
10891;DHT22;5498;50.928;11.598;2022-12-18T01:34:35;-7.40;86.50
10891;DHT22;5498;50.928;11.598;2022-12-18T01:37:37;-7.40;85.70
10891;DHT22;5498;50.928;11.598;2022-12-18T01:40:39;-7.50;85.50
10891;DHT22;5498;50.928;11.598;2022-12-18T01:43:49;-7.50;85.20
10891;DHT22;5498;50.928;11.598;2022-12-18T01:46:53;-7.50;85.30
10891;DHT22;5498;50.928;11.598;2022-12-18T01:49:57;-7.60;84.60
10891;DHT22;5498;50.928;11.598;2022-12-18T01:53:05;-7.70;84.80
10891;DHT22;5498;50.928;11.598;2022-12-18T01:56:12;-7.80;84.90
10891;DHT22;5498;50.928;11.598;2022-12-18T01:59:17;-7.80;85.30
10891;DHT22;5498;50.928;11.598;2022-12-18T02:02:19;-7.80;85.00
10891;DHT22;5498;50.928;11.598;2022-12-18T02:05:29;-7.80;85.30
10891;DHT22;5498;50.928;11.598;2022-12-18T02:08:40;-7.90;85.50
10891;DHT22;5498;50.928;11.598;2022-12-18T02:11:52;-7.90;85.80
10891;DHT22;5498;50.928;11.598;2022-12-18T02:15:05;-8.00;85.80
10891;DHT22;5498;50.928;11.598;2022-12-18T02:18:12;-8.00;85.90
10891;DHT22;5498;50.928;11.598;2022-12-18T02:21:24;-8.00;85.80
10891;DHT22;5498;50.928;11.598;2022-12-18T02:24:35;-8.00;85.60
10891;DHT22;5498;50.928;11.598;2022-12-18T02:27:44;-8.00;85.80
10891;DHT22;5498;50.928;11.598;2022-12-18T02:30:48;-8.00;85.80
10891;DHT22;5498;50.928;11.598;2022-12-18T02:33:53;-8.10;85.80
10891;DHT22;5498;50.928;11.598;2022-12-18T02:36:58;-8.10;85.80
10891;DHT22;5498;50.928;11.598;2022-12-18T02:40:03;-8.10;85.90
10891;DHT22;5498;50.928;11.598;2022-12-18T02:43:09;-8.10;85.90
10891;DHT22;5498;50.928;11.598;2022-12-18T02:46:33;-8.20;85.70
10891;DHT22;5498;50.928;11.598;2022-12-18T02:49:46;-8.20;85.80
10891;DHT22;5498;50.928;11.598;2022-12-18T02:53:00;-8.20;85.70
10891;DHT22;5498;50.928;11.598;2022-12-18T02:56:11;-8.20;85.90
10891;DHT22;5498;50.928;11.598;2022-12-18T02:59:21;-8.20;85.90
10891;DHT22;5498;50.928;11.598;2022-12-18T03:02:33;-8.20;85.70
10891;DHT22;5498;50.928;11.598;2022-12-18T03:05:43;-8.20;85.60
10891;DHT22;5498;50.928;11.598;2022-12-18T03:08:51;-8.20;85.60
10891;DHT22;5498;50.928;11.598;2022-12-18T03:12:01;-8.20;85.50
10891;DHT22;5498;50.928;11.598;2022-12-18T03:15:26;-8.20;85.40
10891;DHT22;5498;50.928;11.598;2022-12-18T03:18:34;-8.30;85.10
10891;DHT22;5498;50.928;11.598;2022-12-18T03:21:40;-8.30;85.40
10891;DHT22;5498;50.928;11.598;2022-12-18T03:24:45;-8.30;85.40
10891;DHT22;5498;50.928;11.598;2022-12-18T03:27:51;-8.30;85.40
10891;DHT22;5498;50.928;11.598;2022-12-18T03:30:59;-8.40;85.10
10891;DHT22;5498;50.928;11.598;2022-12-18T03:34:05;-8.40;85.10
10891;DHT22;5498;50.928;11.598;2022-12-18T03:37:11;-8.40;85.00
10891;DHT22;5498;50.928;11.598;2022-12-18T03:40:13;-8.40;84.80
10891;DHT22;5498;50.928;11.598;2022-12-18T03:43:20;-8.40;84.60
10891;DHT22;5498;50.928;11.598;2022-12-18T03:46:33;-8.30;84.70
10891;DHT22;5498;50.928;11.598;2022-12-18T03:49:46;-8.30;84.30
10891;DHT22;5498;50.928;11.598;2022-12-18T03:52:53;-8.40;83.60
10891;DHT22;5498;50.928;11.598;2022-12-18T03:56:00;-8.40;83.50
10891;DHT22;5498;50.928;11.598;2022-12-18T03:59:04;-8.50;83.50
10891;DHT22;5498;50.928;11.598;2022-12-18T04:02:08;-8.50;83.90
10891;DHT22;5498;50.928;11.598;2022-12-18T04:05:12;-8.50;84.00
10891;DHT22;5498;50.928;11.598;2022-12-18T04:08:14;-8.60;83.50
10891;DHT22;5498;50.928;11.598;2022-12-18T04:11:16;-8.60;83.50
10891;DHT22;5498;50.928;11.598;2022-12-18T04:14:19;-8.60;83.50
10891;DHT22;5498;50.928;11.598;2022-12-18T04:17:23;-8.70;84.00
10891;DHT22;5498;50.928;11.598;2022-12-18T04:20:25;-8.70;84.00
10891;DHT22;5498;50.928;11.598;2022-12-18T04:23:27;-8.70;84.00
10891;DHT22;5498;50.928;11.598;2022-12-18T04:26:29;-8.80;83.80
10891;DHT22;5498;50.928;11.598;2022-12-18T04:29:31;-8.80;84.20
10891;DHT22;5498;50.928;11.598;2022-12-18T04:32:35;-8.80;84.10
10891;DHT22;5498;50.928;11.598;2022-12-18T04:35:37;-8.80;83.90
10891;DHT22;5498;50.928;11.598;2022-12-18T04:38:39;-8.80;84.00
10891;DHT22;5498;50.928;11.598;2022-12-18T04:41:41;-8.80;84.50
10891;DHT22;5498;50.928;11.598;2022-12-18T04:44:43;-8.80;84.30
10891;DHT22;5498;50.928;11.598;2022-12-18T04:47:46;-8.80;84.10
10891;DHT22;5498;50.928;11.598;2022-12-18T04:50:48;-8.80;83.90
10891;DHT22;5498;50.928;11.598;2022-12-18T04:53:50;-8.80;83.80
10891;DHT22;5498;50.928;11.598;2022-12-18T04:56:52;-8.90;83.60
10891;DHT22;5498;50.928;11.598;2022-12-18T04:59:54;-9.00;83.70
10891;DHT22;5498;50.928;11.598;2022-12-18T05:02:57;-9.10;83.90
10891;DHT22;5498;50.928;11.598;2022-12-18T05:06:02;-9.10;84.30
10891;DHT22;5498;50.928;11.598;2022-12-18T05:09:05;-9.10;84.30
10891;DHT22;5498;50.928;11.598;2022-12-18T05:12:07;-9.10;84.30
10891;DHT22;5498;50.928;11.598;2022-12-18T05:15:09;-9.10;84.30
10891;DHT22;5498;50.928;11.598;2022-12-18T05:18:13;-9.10;84.60
10891;DHT22;5498;50.928;11.598;2022-12-18T05:21:15;-9.10;84.50
10891;DHT22;5498;50.928;11.598;2022-12-18T05:24:17;-9.10;84.40
10891;DHT22;5498;50.928;11.598;2022-12-18T05:27:19;-9.00;84.30
10891;DHT22;5498;50.928;11.598;2022-12-18T05:30:21;-8.90;84.10
10891;DHT22;5498;50.928;11.598;2022-12-18T05:33:25;-8.90;84.00
10891;DHT22;5498;50.928;11.598;2022-12-18T05:36:28;-8.90;84.20
10891;DHT22;5498;50.928;11.598;2022-12-18T05:39:30;-8.60;83.40
10891;DHT22;5498;50.928;11.598;2022-12-18T05:42:32;-9.00;82.50
10891;DHT22;5498;50.928;11.598;2022-12-18T05:45:37;-9.10;83.00
10891;DHT22;5498;50.928;11.598;2022-12-18T05:48:40;-9.00;83.60
10891;DHT22;5498;50.928;11.598;2022-12-18T05:51:42;-9.20;83.60
10891;DHT22;5498;50.928;11.598;2022-12-18T05:54:44;-9.20;83.50
10891;DHT22;5498;50.928;11.598;2022-12-18T05:57:46;-9.40;83.70
10891;DHT22;5498;50.928;11.598;2022-12-18T06:00:48;-9.30;84.20
10891;DHT22;5498;50.928;11.598;2022-12-18T06:03:52;-9.30;84.10
10891;DHT22;5498;50.928;11.598;2022-12-18T06:06:54;-9.10;84.60
10891;DHT22;5498;50.928;11.598;2022-12-18T06:09:56;-9.40;84.10
10891;DHT22;5498;50.928;11.598;2022-12-18T06:12:57;-9.40;84.20
10891;DHT22;5498;50.928;11.598;2022-12-18T06:16:02;-9.00;84.60
10891;DHT22;5498;50.928;11.598;2022-12-18T06:19:06;-9.00;84.90
10891;DHT22;5498;50.928;11.598;2022-12-18T06:22:08;-9.30;84.40
10891;DHT22;5498;50.928;11.598;2022-12-18T06:25:10;-9.30;84.20
10891;DHT22;5498;50.928;11.598;2022-12-18T06:28:12;-9.20;84.10
10891;DHT22;5498;50.928;11.598;2022-12-18T06:31:15;-9.10;83.40
10891;DHT22;5498;50.928;11.598;2022-12-18T06:34:18;-9.40;82.90
10891;DHT22;5498;50.928;11.598;2022-12-18T06:37:20;-9.50;82.90
10891;DHT22;5498;50.928;11.598;2022-12-18T06:40:24;-9.40;83.50
10891;DHT22;5498;50.928;11.598;2022-12-18T06:43:26;-9.40;83.30
10891;DHT22;5498;50.928;11.598;2022-12-18T06:46:28;-9.50;83.30
10891;DHT22;5498;50.928;11.598;2022-12-18T06:49:32;-9.50;83.30
10891;DHT22;5498;50.928;11.598;2022-12-18T06:52:34;-9.50;83.50
10891;DHT22;5498;50.928;11.598;2022-12-18T06:55:37;-9.40;83.40
10891;DHT22;5498;50.928;11.598;2022-12-18T06:58:39;-9.30;83.20
10891;DHT22;5498;50.928;11.598;2022-12-18T07:01:42;-9.40;83.60
10891;DHT22;5498;50.928;11.598;2022-12-18T07:04:46;-9.40;83.50
10891;DHT22;5498;50.928;11.598;2022-12-18T07:07:51;-9.40;83.70
10891;DHT22;5498;50.928;11.598;2022-12-18T07:10:53;-9.30;83.40
10891;DHT22;5498;50.928;11.598;2022-12-18T07:13:56;-9.30;83.30
10891;DHT22;5498;50.928;11.598;2022-12-18T07:16:58;-9.40;83.20
10891;DHT22;5498;50.928;11.598;2022-12-18T07:20:01;-9.40;83.20
10891;DHT22;5498;50.928;11.598;2022-12-18T07:23:04;-9.40;84.00
10891;DHT22;5498;50.928;11.598;2022-12-18T07:26:08;-9.30;83.70
10891;DHT22;5498;50.928;11.598;2022-12-18T07:29:11;-9.30;83.60
10891;DHT22;5498;50.928;11.598;2022-12-18T07:32:13;-9.40;82.90
10891;DHT22;5498;50.928;11.598;2022-12-18T07:35:17;-9.40;83.20
10891;DHT22;5498;50.928;11.598;2022-12-18T07:38:19;-9.40;82.90
10891;DHT22;5498;50.928;11.598;2022-12-18T07:41:21;-9.30;83.00
10891;DHT22;5498;50.928;11.598;2022-12-18T07:44:23;-9.40;82.40
10891;DHT22;5498;50.928;11.598;2022-12-18T07:47:25;-9.40;82.60
10891;DHT22;5498;50.928;11.598;2022-12-18T07:50:29;-9.50;82.80
10891;DHT22;5498;50.928;11.598;2022-12-18T07:53:32;-9.10;82.80
10891;DHT22;5498;50.928;11.598;2022-12-18T07:56:35;-9.50;83.10
10891;DHT22;5498;50.928;11.598;2022-12-18T07:59:37;-9.40;82.90
10891;DHT22;5498;50.928;11.598;2022-12-18T08:02:39;-9.40;82.80
10891;DHT22;5498;50.928;11.598;2022-12-18T08:05:43;-9.40;82.70
10891;DHT22;5498;50.928;11.598;2022-12-18T08:08:45;-9.40;82.80
10891;DHT22;5498;50.928;11.598;2022-12-18T08:11:47;-9.40;82.90
10891;DHT22;5498;50.928;11.598;2022-12-18T08:14:48;-9.40;83.00
10891;DHT22;5498;50.928;11.598;2022-12-18T08:17:50;-9.50;82.60
10891;DHT22;5498;50.928;11.598;2022-12-18T08:20:54;-9.50;82.70
10891;DHT22;5498;50.928;11.598;2022-12-18T08:23:58;-9.40;83.20
10891;DHT22;5498;50.928;11.598;2022-12-18T08:27:01;-9.40;83.10
10891;DHT22;5498;50.928;11.598;2022-12-18T08:30:04;-9.40;82.90
10891;DHT22;5498;50.928;11.598;2022-12-18T08:33:07;-9.40;83.50
10891;DHT22;5498;50.928;11.598;2022-12-18T08:36:11;-9.40;82.60
10891;DHT22;5498;50.928;11.598;2022-12-18T08:39:13;-9.40;82.30
10891;DHT22;5498;50.928;11.598;2022-12-18T08:42:16;-9.50;82.60
10891;DHT22;5498;50.928;11.598;2022-12-18T08:45:36;-9.50;82.80
10891;DHT22;5498;50.928;11.598;2022-12-18T08:48:38;-9.40;83.40
10891;DHT22;5498;50.928;11.598;2022-12-18T08:51:41;-9.30;83.30
10891;DHT22;5498;50.928;11.598;2022-12-18T08:54:44;-9.30;83.30
10891;DHT22;5498;50.928;11.598;2022-12-18T08:57:48;-9.30;84.00
10891;DHT22;5498;50.928;11.598;2022-12-18T09:00:50;-9.30;84.00
10891;DHT22;5498;50.928;11.598;2022-12-18T09:03:52;-9.20;84.10
10891;DHT22;5498;50.928;11.598;2022-12-18T09:06:57;-9.10;84.40
10891;DHT22;5498;50.928;11.598;2022-12-18T09:09:59;-8.90;84.70
10891;DHT22;5498;50.928;11.598;2022-12-18T09:13:01;-9.00;84.60
10891;DHT22;5498;50.928;11.598;2022-12-18T09:16:03;-9.00;84.30
10891;DHT22;5498;50.928;11.598;2022-12-18T09:19:12;-8.90;84.70
10891;DHT22;5498;50.928;11.598;2022-12-18T09:22:15;-8.90;85.00
10891;DHT22;5498;50.928;11.598;2022-12-18T09:25:17;-8.80;84.90
10891;DHT22;5498;50.928;11.598;2022-12-18T09:28:19;-8.70;85.00
10891;DHT22;5498;50.928;11.598;2022-12-18T09:31:23;-8.60;85.00
10891;DHT22;5498;50.928;11.598;2022-12-18T09:34:25;-8.60;85.30
10891;DHT22;5498;50.928;11.598;2022-12-18T09:37:29;-8.50;85.00
10891;DHT22;5498;50.928;11.598;2022-12-18T09:40:36;-7.90;85.60
10891;DHT22;5498;50.928;11.598;2022-12-18T09:43:45;-8.40;86.00
10891;DHT22;5498;50.928;11.598;2022-12-18T09:46:54;-8.30;86.20
10891;DHT22;5498;50.928;11.598;2022-12-18T09:50:04;-8.20;86.60
10891;DHT22;5498;50.928;11.598;2022-12-18T09:53:13;-8.10;86.70
10891;DHT22;5498;50.928;11.598;2022-12-18T09:56:19;-8.10;86.90
10891;DHT22;5498;50.928;11.598;2022-12-18T09:59:25;-8.00;86.90
10891;DHT22;5498;50.928;11.598;2022-12-18T10:02:31;-7.90;87.00
10891;DHT22;5498;50.928;11.598;2022-12-18T10:05:38;-7.80;86.70
10891;DHT22;5498;50.928;11.598;2022-12-18T10:08:51;-7.70;87.20
10891;DHT22;5498;50.928;11.598;2022-12-18T10:12:04;-7.60;87.50
10891;DHT22;5498;50.928;11.598;2022-12-18T10:15:14;-7.50;87.80
10891;DHT22;5498;50.928;11.598;2022-12-18T10:18:28;-7.40;87.90
10891;DHT22;5498;50.928;11.598;2022-12-18T10:21:41;-7.20;88.30
10891;DHT22;5498;50.928;11.598;2022-12-18T10:24:53;-6.80;88.20
10891;DHT22;5498;50.928;11.598;2022-12-18T10:28:00;-6.60;87.70
10891;DHT22;5498;50.928;11.598;2022-12-18T10:31:14;-6.20;87.20
10891;DHT22;5498;50.928;11.598;2022-12-18T10:34:18;-6.00;86.80
10891;DHT22;5498;50.928;11.598;2022-12-18T10:37:22;-5.60;87.00
10891;DHT22;5498;50.928;11.598;2022-12-18T10:40:27;-5.30;85.80
10891;DHT22;5498;50.928;11.598;2022-12-18T10:43:30;-5.00;85.00
10891;DHT22;5498;50.928;11.598;2022-12-18T10:46:33;-4.90;84.20
10891;DHT22;5498;50.928;11.598;2022-12-18T10:49:47;-4.70;83.80
10891;DHT22;5498;50.928;11.598;2022-12-18T10:52:56;-4.50;83.70
10891;DHT22;5498;50.928;11.598;2022-12-18T10:56:04;-4.30;83.10
10891;DHT22;5498;50.928;11.598;2022-12-18T10:59:10;-4.20;82.60
10891;DHT22;5498;50.928;11.598;2022-12-18T11:02:26;-4.00;82.60
10891;DHT22;5498;50.928;11.598;2022-12-18T11:05:31;-3.80;82.60
10891;DHT22;5498;50.928;11.598;2022-12-18T11:08:35;-3.40;81.80
10891;DHT22;5498;50.928;11.598;2022-12-18T11:11:38;-3.30;81.10
10891;DHT22;5498;50.928;11.598;2022-12-18T11:14:43;-3.10;80.60
10891;DHT22;5498;50.928;11.598;2022-12-18T11:17:50;-2.90;80.00
10891;DHT22;5498;50.928;11.598;2022-12-18T11:20:55;-2.60;79.80
10891;DHT22;5498;50.928;11.598;2022-12-18T11:23:59;-2.40;79.20
10891;DHT22;5498;50.928;11.598;2022-12-18T11:27:04;-2.30;78.70
10891;DHT22;5498;50.928;11.598;2022-12-18T11:30:09;-2.10;78.50
10891;DHT22;5498;50.928;11.598;2022-12-18T11:33:22;-2.00;77.50
10891;DHT22;5498;50.928;11.598;2022-12-18T11:36:26;-1.80;77.80
10891;DHT22;5498;50.928;11.598;2022-12-18T11:39:36;-1.70;78.00
10891;DHT22;5498;50.928;11.598;2022-12-18T11:42:45;-1.60;78.00
10891;DHT22;5498;50.928;11.598;2022-12-18T11:45:53;-1.40;77.40
10891;DHT22;5498;50.928;11.598;2022-12-18T11:49:01;-1.30;76.70
10891;DHT22;5498;50.928;11.598;2022-12-18T11:52:15;-1.20;76.70
10891;DHT22;5498;50.928;11.598;2022-12-18T11:59:07;-0.90;76.20
10891;DHT22;5498;50.928;11.598;2022-12-18T12:02:33;-0.90;75.40
10891;DHT22;5498;50.928;11.598;2022-12-18T12:05:58;-0.90;75.50
10891;DHT22;5498;50.928;11.598;2022-12-18T12:09:19;-0.90;75.60
10891;DHT22;5498;50.928;11.598;2022-12-18T12:12:37;-0.70;75.90
10891;DHT22;5498;50.928;11.598;2022-12-18T12:15:58;-0.60;75.90
10891;DHT22;5498;50.928;11.598;2022-12-18T12:19:19;-0.70;75.20
10891;DHT22;5498;50.928;11.598;2022-12-18T12:22:37;-0.80;75.90
10891;DHT22;5498;50.928;11.598;2022-12-18T12:25:48;-0.90;76.30
10891;DHT22;5498;50.928;11.598;2022-12-18T12:29:17;-0.90;77.00
10891;DHT22;5498;50.928;11.598;2022-12-18T12:32:46;-0.90;77.10
10891;DHT22;5498;50.928;11.598;2022-12-18T12:36:00;-1.20;77.10
10891;DHT22;5498;50.928;11.598;2022-12-18T12:39:11;-1.20;77.90
10891;DHT22;5498;50.928;11.598;2022-12-18T12:42:19;-1.30;78.20
10891;DHT22;5498;50.928;11.598;2022-12-18T12:45:47;-1.40;79.20
10891;DHT22;5498;50.928;11.598;2022-12-18T12:48:55;-1.50;79.50
10891;DHT22;5498;50.928;11.598;2022-12-18T12:52:06;-1.60;79.70
10891;DHT22;5498;50.928;11.598;2022-12-18T12:55:15;-1.50;80.50
10891;DHT22;5498;50.928;11.598;2022-12-18T12:58:26;-1.50;80.80
10891;DHT22;5498;50.928;11.598;2022-12-18T13:01:36;-1.50;81.10
10891;DHT22;5498;50.928;11.598;2022-12-18T13:04:47;-1.40;81.20
10891;DHT22;5498;50.928;11.598;2022-12-18T13:07:56;-1.40;81.00
10891;DHT22;5498;50.928;11.598;2022-12-18T13:11:01;-1.30;81.10
10891;DHT22;5498;50.928;11.598;2022-12-18T13:14:23;-1.40;81.00
10891;DHT22;5498;50.928;11.598;2022-12-18T13:17:29;-1.40;81.30
10891;DHT22;5498;50.928;11.598;2022-12-18T13:20:35;-1.40;81.40
10891;DHT22;5498;50.928;11.598;2022-12-18T13:23:38;-1.50;81.60
10891;DHT22;5498;50.928;11.598;2022-12-18T13:26:40;-1.50;81.90
10891;DHT22;5498;50.928;11.598;2022-12-18T13:29:43;-1.60;82.00
10891;DHT22;5498;50.928;11.598;2022-12-18T13:32:46;-1.60;82.40
10891;DHT22;5498;50.928;11.598;2022-12-18T13:36:14;-1.60;82.20
10891;DHT22;5498;50.928;11.598;2022-12-18T13:39:32;-1.70;82.90
10891;DHT22;5498;50.928;11.598;2022-12-18T13:42:39;-1.70;83.00
10891;DHT22;5498;50.928;11.598;2022-12-18T13:46:06;-1.80;83.20
10891;DHT22;5498;50.928;11.598;2022-12-18T13:49:23;-1.90;83.80
10891;DHT22;5498;50.928;11.598;2022-12-18T13:52:28;-1.90;83.90
10891;DHT22;5498;50.928;11.598;2022-12-18T13:55:38;-1.90;84.20
10891;DHT22;5498;50.928;11.598;2022-12-18T13:58:40;-1.90;84.10
10891;DHT22;5498;50.928;11.598;2022-12-18T14:01:43;-1.40;84.60
10891;DHT22;5498;50.928;11.598;2022-12-18T14:04:47;-2.00;84.90
10891;DHT22;5498;50.928;11.598;2022-12-18T14:07:51;-2.10;85.40
10891;DHT22;5498;50.928;11.598;2022-12-18T14:10:55;-2.20;86.60
10891;DHT22;5498;50.928;11.598;2022-12-18T14:13:58;-2.10;86.90
10891;DHT22;5498;50.928;11.598;2022-12-18T14:17:01;-2.10;86.60
10891;DHT22;5498;50.928;11.598;2022-12-18T14:20:04;-2.40;86.90
10891;DHT22;5498;50.928;11.598;2022-12-18T14:23:33;-2.30;87.70
10891;DHT22;5498;50.928;11.598;2022-12-18T14:26:37;-2.50;88.20
10891;DHT22;5498;50.928;11.598;2022-12-18T14:29:43;-2.60;88.30
10891;DHT22;5498;50.928;11.598;2022-12-18T14:32:59;-2.50;88.70
10891;DHT22;5498;50.928;11.598;2022-12-18T14:36:04;-2.50;88.90
10891;DHT22;5498;50.928;11.598;2022-12-18T14:39:18;-2.60;88.40
10891;DHT22;5498;50.928;11.598;2022-12-18T14:42:20;-2.50;88.50
10891;DHT22;5498;50.928;11.598;2022-12-18T14:45:41;-2.50;88.50
10891;DHT22;5498;50.928;11.598;2022-12-18T14:48:47;-2.20;88.70
10891;DHT22;5498;50.928;11.598;2022-12-18T14:51:52;-2.60;88.50
10891;DHT22;5498;50.928;11.598;2022-12-18T14:54:56;-2.60;88.50
10891;DHT22;5498;50.928;11.598;2022-12-18T14:57:58;-2.60;88.30
10891;DHT22;5498;50.928;11.598;2022-12-18T15:01:00;-2.60;88.30
10891;DHT22;5498;50.928;11.598;2022-12-18T15:04:04;-2.60;88.60
10891;DHT22;5498;50.928;11.598;2022-12-18T15:07:22;-2.60;89.10
10891;DHT22;5498;50.928;11.598;2022-12-18T15:10:28;-2.60;87.80
10891;DHT22;5498;50.928;11.598;2022-12-18T15:13:30;-2.60;88.80
10891;DHT22;5498;50.928;11.598;2022-12-18T15:19:38;-2.60;88.60
10891;DHT22;5498;50.928;11.598;2022-12-18T15:22:41;-2.60;89.20
10891;DHT22;5498;50.928;11.598;2022-12-18T15:25:46;-2.60;88.80
10891;DHT22;5498;50.928;11.598;2022-12-18T15:28:50;-2.70;89.00
10891;DHT22;5498;50.928;11.598;2022-12-18T15:32:01;-2.60;89.20
10891;DHT22;5498;50.928;11.598;2022-12-18T15:35:14;-2.70;89.20
10891;DHT22;5498;50.928;11.598;2022-12-18T15:38:18;-2.70;89.30
10891;DHT22;5498;50.928;11.598;2022-12-18T15:41:22;-2.80;88.80
10891;DHT22;5498;50.928;11.598;2022-12-18T15:44:25;-2.80;89.50
10891;DHT22;5498;50.928;11.598;2022-12-18T15:47:27;-2.90;89.60
10891;DHT22;5498;50.928;11.598;2022-12-18T15:50:29;-2.90;89.90
10891;DHT22;5498;50.928;11.598;2022-12-18T15:53:33;-2.90;90.00
10891;DHT22;5498;50.928;11.598;2022-12-18T15:56:36;-2.80;90.00
10891;DHT22;5498;50.928;11.598;2022-12-18T15:59:56;-2.90;88.30
10891;DHT22;5498;50.928;11.598;2022-12-18T16:02:58;-2.70;87.70
10891;DHT22;5498;50.928;11.598;2022-12-18T16:06:00;-2.70;87.70
10891;DHT22;5498;50.928;11.598;2022-12-18T16:09:02;-2.60;87.90
10891;DHT22;5498;50.928;11.598;2022-12-18T16:12:06;-2.60;87.70
10891;DHT22;5498;50.928;11.598;2022-12-18T16:15:16;-2.60;87.80
10891;DHT22;5498;50.928;11.598;2022-12-18T16:18:18;-2.40;87.50
10891;DHT22;5498;50.928;11.598;2022-12-18T16:21:20;-2.20;86.70
10891;DHT22;5498;50.928;11.598;2022-12-18T16:24:24;-2.20;85.40
10891;DHT22;5498;50.928;11.598;2022-12-18T16:27:28;-2.10;85.40
10891;DHT22;5498;50.928;11.598;2022-12-18T16:30:31;-2.00;84.20
10891;DHT22;5498;50.928;11.598;2022-12-18T16:33:33;-1.80;84.50
10891;DHT22;5498;50.928;11.598;2022-12-18T16:36:35;-1.70;84.00
10891;DHT22;5498;50.928;11.598;2022-12-18T16:39:38;-1.60;83.60
10891;DHT22;5498;50.928;11.598;2022-12-18T16:42:43;-1.60;84.20
10891;DHT22;5498;50.928;11.598;2022-12-18T16:45:46;-1.50;83.00
10891;DHT22;5498;50.928;11.598;2022-12-18T16:48:48;-1.50;82.40
10891;DHT22;5498;50.928;11.598;2022-12-18T16:51:50;-1.50;82.10
10891;DHT22;5498;50.928;11.598;2022-12-18T16:54:52;-1.50;82.10
10891;DHT22;5498;50.928;11.598;2022-12-18T16:57:56;-1.50;82.30
10891;DHT22;5498;50.928;11.598;2022-12-18T17:00:58;-1.40;82.20
10891;DHT22;5498;50.928;11.598;2022-12-18T17:04:02;-1.40;82.00
10891;DHT22;5498;50.928;11.598;2022-12-18T17:07:04;-1.30;82.40
10891;DHT22;5498;50.928;11.598;2022-12-18T17:10:07;-1.30;82.00
10891;DHT22;5498;50.928;11.598;2022-12-18T17:13:11;-1.30;82.00
10891;DHT22;5498;50.928;11.598;2022-12-18T17:16:13;-1.20;81.60
10891;DHT22;5498;50.928;11.598;2022-12-18T17:19:16;-1.20;81.70
10891;DHT22;5498;50.928;11.598;2022-12-18T17:22:19;-1.20;81.40
10891;DHT22;5498;50.928;11.598;2022-12-18T17:25:22;-1.20;81.50
10891;DHT22;5498;50.928;11.598;2022-12-18T17:28:26;-1.20;81.20
10891;DHT22;5498;50.928;11.598;2022-12-18T17:31:30;-1.10;81.20
10891;DHT22;5498;50.928;11.598;2022-12-18T17:34:33;-1.10;80.90
10891;DHT22;5498;50.928;11.598;2022-12-18T17:37:37;-1.00;80.40
10891;DHT22;5498;50.928;11.598;2022-12-18T17:40:40;-1.00;80.40
10891;DHT22;5498;50.928;11.598;2022-12-18T17:43:43;-1.00;79.50
10891;DHT22;5498;50.928;11.598;2022-12-18T17:46:46;-0.90;79.00
10891;DHT22;5498;50.928;11.598;2022-12-18T17:49:48;-0.90;78.70
10891;DHT22;5498;50.928;11.598;2022-12-18T17:52:54;-0.80;78.90
10891;DHT22;5498;50.928;11.598;2022-12-18T17:55:57;-0.80;79.00
10891;DHT22;5498;50.928;11.598;2022-12-18T17:59:02;-0.70;79.20
10891;DHT22;5498;50.928;11.598;2022-12-18T18:02:04;-0.70;78.90
10891;DHT22;5498;50.928;11.598;2022-12-18T18:05:06;-0.70;78.50
10891;DHT22;5498;50.928;11.598;2022-12-18T18:08:09;-0.70;78.50
10891;DHT22;5498;50.928;11.598;2022-12-18T18:11:12;-0.70;77.90
10891;DHT22;5498;50.928;11.598;2022-12-18T18:14:35;-0.60;78.20
10891;DHT22;5498;50.928;11.598;2022-12-18T18:17:37;-0.60;78.00
10891;DHT22;5498;50.928;11.598;2022-12-18T18:20:39;-0.60;77.90
10891;DHT22;5498;50.928;11.598;2022-12-18T18:23:41;-0.50;77.80
10891;DHT22;5498;50.928;11.598;2022-12-18T18:26:43;-0.50;77.60
10891;DHT22;5498;50.928;11.598;2022-12-18T18:29:47;-0.50;77.70
10891;DHT22;5498;50.928;11.598;2022-12-18T18:32:49;-0.50;77.30
10891;DHT22;5498;50.928;11.598;2022-12-18T18:35:51;-0.50;77.30
10891;DHT22;5498;50.928;11.598;2022-12-18T18:38:53;-0.40;77.20
10891;DHT22;5498;50.928;11.598;2022-12-18T18:41:55;-0.40;77.40
10891;DHT22;5498;50.928;11.598;2022-12-18T18:45:00;-0.40;77.20
10891;DHT22;5498;50.928;11.598;2022-12-18T18:48:03;-0.40;77.30
10891;DHT22;5498;50.928;11.598;2022-12-18T18:51:07;-0.40;77.80
10891;DHT22;5498;50.928;11.598;2022-12-18T18:54:12;-0.40;77.90
10891;DHT22;5498;50.928;11.598;2022-12-18T18:57:14;-0.40;77.50
10891;DHT22;5498;50.928;11.598;2022-12-18T19:00:17;-0.40;77.30
10891;DHT22;5498;50.928;11.598;2022-12-18T19:03:19;-0.40;77.10
10891;DHT22;5498;50.928;11.598;2022-12-18T19:06:23;-0.40;77.20
10891;DHT22;5498;50.928;11.598;2022-12-18T19:09:27;-0.40;77.30
10891;DHT22;5498;50.928;11.598;2022-12-18T19:12:29;-0.40;77.60
10891;DHT22;5498;50.928;11.598;2022-12-18T19:15:51;-0.30;77.60
10891;DHT22;5498;50.928;11.598;2022-12-18T19:18:55;-0.30;77.30
10891;DHT22;5498;50.928;11.598;2022-12-18T19:21:57;-0.30;76.80
10891;DHT22;5498;50.928;11.598;2022-12-18T19:24:59;-0.30;76.30
10891;DHT22;5498;50.928;11.598;2022-12-18T19:28:01;-0.20;76.30
10891;DHT22;5498;50.928;11.598;2022-12-18T19:31:07;-0.20;76.20
10891;DHT22;5498;50.928;11.598;2022-12-18T19:34:11;-0.20;76.20
10891;DHT22;5498;50.928;11.598;2022-12-18T19:37:13;-0.20;75.70
10891;DHT22;5498;50.928;11.598;2022-12-18T19:40:15;-0.20;75.60